Time;durP1;ratioP1;P1;durP2;ratioP2;P2;SDS_P1;SDS_P2;PMS_P1;PMS_P2;Temp;Humidity;BMP_temperature;BMP_pressure;BME280_temperature;BME280_humidity;BME280_pressure;Samples;Min_cycle;Max_cycle;Signal;HPM_P1;HPM_P2
2023/12/22 00:00:08;;;;;;;39.03;8.63;;;;;;;4.94;100.00;161858.59;5031258;28;20492;-62
2023/12/22 00:02:33;;;;;;;29.15;7.18;;;;;;;4.87;100.00;161839.78;5045050;28;20032;-62
2023/12/22 00:04:59;;;;;;;39.40;7.82;;;;;;;4.93;100.00;161855.91;5034905;28;20523;-62
2023/12/22 00:07:24;;;;;;;24.70;9.20;;;;;;;4.93;100.00;161855.91;5032445;28;20017;-61
2023/12/22 00:09:50;;;;;;;36.38;11.63;;;;;;;4.95;100.00;161861.28;5030754;28;20557;-62
2023/12/22 00:12:15;;;;;;;28.13;9.13;;;;;;;5.01;100.00;161877.41;5032075;28;20037;-61
2023/12/22 00:14:40;;;;;;;37.95;9.02;;;;;;;5.02;100.00;161880.13;5030413;28;20500;-61
2023/12/22 00:17:06;;;;;;;24.30;6.40;;;;;;;5.08;100.00;161896.25;5032160;28;20030;-61
2023/12/22 00:19:31;;;;;;;23.02;5.93;;;;;;;5.16;100.00;161915.06;5030291;28;20424;-59
2023/12/22 00:21:58;;;;;;;19.08;7.88;;;;;;;5.21;100.00;161928.50;5039637;28;20079;-62
2023/12/22 00:24:23;;;;;;;30.00;8.40;;;;;;;5.16;100.00;161915.06;5040026;28;20091;-62
2023/12/22 00:26:49;;;;;;;17.60;6.43;;;;;;;5.15;100.00;161912.38;5030454;28;20021;-62
2023/12/22 00:29:14;;;;;;;15.95;5.28;;;;;;;5.08;100.00;161896.25;5030520;28;20037;-62
2023/12/22 00:31:39;;;;;;;17.52;5.82;;;;;;;5.07;100.00;161893.53;5031717;28;20080;-62
2023/12/22 00:34:05;;;;;;;19.80;5.65;;;;;;;5.02;100.00;161878.75;5030068;28;20048;-61
2023/12/22 00:36:30;;;;;;;25.23;7.35;;;;;;;5.03;100.00;161882.75;5031586;28;20607;-62
2023/12/22 00:38:55;;;;;;;9.35;4.65;;;;;;;5.03;100.00;161881.44;5030263;28;20038;-62
2023/12/22 00:41:21;;;;;;;20.88;7.40;;;;;;;5.01;100.00;161876.03;5033386;28;20044;-62
2023/12/22 00:43:46;;;;;;;20.20;5.35;;;;;;;5.09;100.00;161897.56;5045761;28;20063;-61
2023/12/22 00:46:13;;;;;;;22.25;7.38;;;;;;;5.17;100.00;161917.78;5031204;28;20018;-61
2023/12/22 00:48:38;;;;;;;21.13;7.75;;;;;;;5.21;100.00;161929.81;5031154;28;20232;-61
2023/12/22 00:51:06;;;;;;;14.48;4.57;;;;;;;5.32;100.00;161958.13;5029892;28;20044;-62
2023/12/22 00:53:31;;;;;;;23.17;6.57;;;;;;;5.36;100.00;161968.88;5013537;28;20396;-62
2023/12/22 00:55:57;;;;;;;33.35;6.18;;;;;;;5.39;100.00;161976.97;5029413;28;20575;-62
2023/12/22 00:58:22;;;;;;;19.63;5.70;;;;;;;5.42;100.00;161982.31;5031149;28;20033;-62
2023/12/22 01:00:47;;;;;;;23.25;8.23;;;;;;;5.38;100.00;161972.88;5030162;28;20171;-62
2023/12/22 01:03:13;;;;;;;20.90;5.70;;;;;;;5.38;100.00;161974.25;5050907;28;20032;-61
2023/12/22 01:05:38;;;;;;;19.23;6.90;;;;;;;5.43;100.00;161986.38;5029972;28;20570;-61
2023/12/22 01:08:04;;;;;;;11.98;3.65;;;;;;;5.43;100.00;161985.00;5031191;28;20457;-61
2023/12/22 01:10:29;;;;;;;23.92;5.97;;;;;;;5.45;100.00;161990.41;5029446;28;20041;-61
2023/12/22 01:12:54;;;;;;;18.65;7.38;;;;;;;5.52;100.00;162009.22;5031282;28;20500;-61
2023/12/22 01:15:20;;;;;;;17.75;7.13;;;;;;;5.60;100.00;162030.75;5029458;28;20049;-61
2023/12/22 01:17:45;;;;;;;27.63;10.68;;;;;;;5.56;100.00;162019.97;5030734;28;20022;-62
2023/12/22 01:20:11;;;;;;;18.73;7.68;;;;;;;5.48;100.00;161998.44;5029453;28;20428;-61
2023/12/22 01:22:38;;;;;;;17.52;5.90;;;;;;;5.51;100.00;162006.53;5045589;28;20044;-61
2023/12/22 01:25:05;;;;;;;15.10;5.47;;;;;;;5.56;100.00;162019.97;5034782;28;20117;-61
2023/12/22 01:27:30;;;;;;;20.52;6.82;;;;;;;5.58;100.00;162025.38;5031127;28;20053;-61
2023/12/22 01:29:56;;;;;;;32.67;7.63;;;;;;;5.56;100.00;162019.97;5036242;28;20064;-61
2023/12/22 01:32:21;;;;;;;15.15;4.82;;;;;;;5.51;100.00;162006.53;5037148;28;20033;-61
2023/12/22 01:34:46;;;;;;;13.93;4.88;;;;;;;5.47;100.00;161995.78;5028949;28;20119;-62
2023/12/22 01:37:12;;;;;;;13.07;4.80;;;;;;;5.49;100.00;162001.13;5030695;28;20045;-61
2023/12/22 01:39:37;;;;;;;19.10;4.20;;;;;;;5.50;100.00;162003.81;5028958;28;20812;-61
2023/12/22 01:42:03;;;;;;;29.63;9.60;;;;;;;5.50;100.00;162003.81;5030970;28;20025;-61
2023/12/22 01:44:29;;;;;;;22.50;5.72;;;;;;;5.47;100.00;161997.13;5028960;28;20493;-61
2023/12/22 01:46:54;;;;;;;21.70;4.95;;;;;;;5.46;100.00;161993.09;5030614;28;20018;-61
2023/12/22 01:49:21;;;;;;;16.23;5.88;;;;;;;5.50;100.00;162003.81;5029116;28;20041;-60
2023/12/22 01:51:47;;;;;;;10.63;5.57;;;;;;;5.49;100.00;162001.13;5038568;28;20056;-60
2023/12/22 01:54:15;;;;;;;17.17;4.28;;;;;;;5.50;100.00;162003.81;5042596;28;20068;-60
2023/12/22 01:56:40;;;;;;;23.40;7.35;;;;;;;5.51;100.00;162006.53;5036715;28;20040;-61
2023/12/22 01:59:06;;;;;;;13.85;3.95;;;;;;;5.53;100.00;162011.94;5050773;28;20045;-61
2023/12/22 02:01:33;;;;;;;12.45;4.72;;;;;;;5.55;100.00;162017.28;5035921;28;20512;-60
2023/12/22 02:03:59;;;;;;;11.43;3.28;;;;;;;5.55;100.00;162017.28;5032990;28;20555;-60
2023/12/22 02:06:24;;;;;;;16.35;4.60;;;;;;;5.51;100.00;162007.84;5034891;28;20047;-61
2023/12/22 02:08:50;;;;;;;12.82;4.72;;;;;;;5.53;100.00;162011.94;5033865;28;20611;-60
2023/12/22 02:11:16;;;;;;;30.67;5.15;;;;;;;5.55;100.00;162017.28;5034412;28;20033;-60
2023/12/22 02:13:43;;;;;;;10.95;3.78;;;;;;;5.59;100.00;162028.06;5034267;28;20022;-61
2023/12/22 02:16:18;;;;;;;18.35;6.40;;;;;;;5.58;100.00;162025.38;5035162;28;20049;-60
2023/12/22 02:18:47;;;;;;;11.38;3.72;;;;;;;5.65;100.00;162044.19;5052813;28;20025;-60
2023/12/22 02:21:12;;;;;;;19.35;5.35;;;;;;;5.57;100.00;162022.66;5053673;28;20025;-61
2023/12/22 02:23:37;;;;;;;10.98;2.92;;;;;;;5.06;100.00;161890.84;5053097;28;20024;-60
2023/12/22 02:26:12;;;;;;;2.92;2.47;;;;;;;4.51;100.00;161745.59;5032839;28;20408;-61
2023/12/22 02:28:39;;;;;;;2.17;2.05;;;;;;;-146.58;100.00;69501.63;5034362;28;20104;-62
2023/12/22 02:31:08;;;;;;;8.70;3.75;;;;;;;4.13;100.00;161647.50;5032289;28;20511;-62
2023/12/22 02:33:36;;;;;;;9.43;2.83;;;;;;;4.06;100.00;161628.69;5041834;28;20035;-61
2023/12/22 02:36:08;;;;;;;12.60;2.75;;;;;;;4.02;100.00;161619.28;5033681;28;20045;-61
2023/12/22 02:38:34;;;;;;;6.40;2.83;;;;;;;3.96;100.00;161603.16;5053104;28;20518;-61
2023/12/22 02:41:00;;;;;;;4.32;3.00;;;;;;;3.90;100.00;161587.03;5052178;28;20493;-61
2023/12/22 02:43:25;;;;;;;13.40;5.68;;;;;;;3.90;100.00;161587.03;5053727;28;20035;-61
2023/12/22 02:45:51;;;;;;;10.23;2.72;;;;;;;3.91;100.00;161589.75;5034168;28;20045;-61
2023/12/22 02:48:17;;;;;;;7.82;2.58;;;;;;;3.86;100.00;161576.25;5034084;28;20032;-61
2023/12/22 02:50:42;;;;;;;10.13;3.67;;;;;;;3.81;100.00;161564.16;5032178;28;20449;-61
2023/12/22 02:53:07;;;;;;;6.72;3.65;;;;;;;3.91;100.00;161589.75;5032793;28;20026;-61
2023/12/22 02:55:33;;;;;;;7.88;4.20;;;;;;;3.91;100.00;161591.06;5032042;28;20091;-61
2023/12/22 02:57:58;;;;;;;11.18;2.92;;;;;;;4.03;100.00;161621.97;5050337;28;20024;-62
2023/12/22 03:00:24;;;;;;;10.15;2.83;;;;;;;4.05;100.00;161627.38;5046572;28;20045;-61
2023/12/22 03:02:49;;;;;;;6.22;2.65;;;;;;;4.09;100.00;161638.09;5035629;28;20017;-62
2023/12/22 03:05:14;;;;;;;3.05;2.78;;;;;;;4.12;100.00;161646.19;5036061;28;20405;-61
2023/12/22 03:07:40;;;;;;;16.08;4.65;;;;;;;4.06;100.00;161628.69;5047026;28;20025;-61
2023/12/22 03:10:06;;;;;;;14.10;4.38;;;;;;;4.04;100.00;161623.28;5041384;28;20489;-61
2023/12/22 03:12:31;;;;;;;5.22;2.97;;;;;;;4.04;100.00;161623.28;5032787;28;20040;-60
2023/12/22 03:14:56;;;;;;;8.60;3.28;;;;;;;4.12;100.00;161646.19;5031807;28;20056;-61
2023/12/22 03:17:22;;;;;;;3.25;2.45;;;;;;;4.22;100.00;161670.34;5032852;28;20025;-61
2023/12/22 03:19:47;;;;;;;12.65;3.45;;;;;;;4.28;100.00;161686.50;5031643;28;20492;-61
2023/12/22 03:22:12;;;;;;;8.65;3.58;;;;;;;4.32;100.00;161697.22;5032882;28;20033;-61
2023/12/22 03:24:38;;;;;;;5.60;3.58;;;;;;;4.32;100.00;161697.22;5030839;28;20523;-59
2023/12/22 03:27:04;;;;;;;12.68;3.95;;;;;;;4.28;100.00;161687.81;5033476;28;20033;-60
2023/12/22 03:29:29;;;;;;;11.65;3.25;;;;;;;4.24;100.00;161675.72;5031331;28;20033;-60
2023/12/22 03:31:54;;;;;;;7.97;3.75;;;;;;;4.24;100.00;161677.09;5032685;28;20075;-60
2023/12/22 03:34:20;;;;;;;14.13;4.47;;;;;;;4.28;100.00;161686.50;5031316;28;20049;-60
2023/12/22 03:36:48;;;;;;;14.95;5.00;;;;;;;4.36;100.00;161707.97;5038383;28;20114;-60
2023/12/22 03:39:14;;;;;;;17.15;6.60;;;;;;;4.37;100.00;161709.34;5051256;28;20114;-60
2023/12/22 03:41:40;;;;;;;16.33;4.00;;;;;;;4.39;100.00;161716.06;5052791;28;20067;-60
2023/12/22 03:44:05;;;;;;;7.30;2.72;;;;;;;4.36;100.00;161707.97;5045263;28;20447;-60
2023/12/22 03:46:30;;;;;;;4.88;2.13;;;;;;;4.29;100.00;161689.16;5032248;28;20022;-60
2023/12/22 03:48:56;;;;;;;6.07;2.95;;;;;;;4.31;100.00;161694.53;5031335;28;20032;-60
2023/12/22 03:51:21;;;;;;;6.07;2.83;;;;;;;4.25;100.00;161679.75;5032724;28;20111;-60
2023/12/22 03:53:46;;;;;;;9.43;4.75;;;;;;;4.25;100.00;161678.41;5030777;28;20037;-60
2023/12/22 03:56:12;;;;;;;5.35;2.25;;;;;;;4.17;100.00;161658.22;5036742;28;20071;-61
2023/12/22 03:58:37;;;;;;;17.77;3.80;;;;;;;4.21;100.00;161667.63;5051953;28;20032;-61
2023/12/22 04:01:04;;;;;;;5.80;3.22;;;;;;;4.17;100.00;161658.22;5050537;28;20051;-60
2023/12/22 04:03:29;;;;;;;14.68;5.78;;;;;;;4.12;100.00;161646.19;5052293;28;20021;-62
2023/12/22 04:05:54;;;;;;;13.32;4.25;;;;;;;4.09;100.00;161638.09;5015635;28;20050;-61
2023/12/22 04:08:20;;;;;;;8.43;4.38;;;;;;;4.06;100.00;161628.69;5051394;28;20013;-60
2023/12/22 04:10:46;;;;;;;7.90;3.83;;;;;;;4.07;100.00;161632.69;5050602;28;20044;-60
2023/12/22 04:13:11;;;;;;;17.08;4.93;;;;;;;4.08;100.00;161634.06;5040727;28;20029;-61
2023/12/22 04:15:37;;;;;;;15.32;4.97;;;;;;;4.09;100.00;161638.09;5030024;28;20041;-60
2023/12/22 04:18:02;;;;;;;11.40;4.90;;;;;;;3.98;100.00;161608.53;5032266;28;20034;-60
2023/12/22 04:20:28;;;;;;;16.10;3.97;;;;;;;4.02;100.00;161619.28;5030620;28;20065;-61
2023/12/22 04:22:53;;;;;;;11.85;5.63;;;;;;;4.03;100.00;161621.97;5031010;28;20021;-59
2023/12/22 04:25:19;;;;;;;9.38;4.57;;;;;;;3.99;100.00;161611.19;5030179;28;20057;-60
2023/12/22 04:27:44;;;;;;;13.48;4.78;;;;;;;3.95;100.00;161600.47;5049096;28;20017;-60
2023/12/22 04:30:10;;;;;;;18.45;5.28;;;;;;;3.89;100.00;161584.34;5050109;28;20041;-60
2023/12/22 04:32:36;;;;;;;7.97;3.67;;;;;;;3.84;100.00;161570.88;5051546;28;20028;-60
2023/12/22 04:35:01;;;;;;;20.85;5.10;;;;;;;3.85;100.00;161573.56;5037978;28;20048;-61
2023/12/22 04:37:26;;;;;;;13.10;3.20;;;;;;;3.90;100.00;161588.38;5031324;28;20048;-61
2023/12/22 04:39:52;;;;;;;11.10;3.63;;;;;;;3.96;100.00;161604.47;5030427;28;20037;-61
2023/12/22 04:42:18;;;;;;;11.50;4.22;;;;;;;4.05;100.00;161627.38;5031658;28;20029;-60
2023/12/22 04:44:43;;;;;;;17.92;4.07;;;;;;;4.08;100.00;161635.41;5035172;28;20491;-60
2023/12/22 04:47:09;;;;;;;19.90;3.63;;;;;;;4.09;100.00;161636.78;5039738;28;20032;-60
2023/12/22 04:49:34;;;;;;;11.73;3.42;;;;;;;4.16;100.00;161654.22;5029981;28;20041;-59
2023/12/22 04:51:59;;;;;;;9.35;3.03;;;;;;;4.20;100.00;161665.00;5031397;28;20029;-60
2023/12/22 04:54:25;;;;;;;12.40;4.05;;;;;;;4.23;100.00;161674.41;5029682;28;20038;-60
2023/12/22 04:56:51;;;;;;;13.27;4.03;;;;;;;4.29;100.00;161689.16;5039889;28;20024;-60
2023/12/22 04:59:16;;;;;;;13.15;4.80;;;;;;;4.39;100.00;161716.06;5049394;28;20036;-60
2023/12/22 05:01:42;;;;;;;17.50;5.32;;;;;;;4.42;100.00;161724.13;5051197;28;20020;-60
2023/12/22 05:04:09;;;;;;;17.98;5.78;;;;;;;4.41;100.00;161721.44;5042268;28;20041;-60
2023/12/22 05:06:34;;;;;;;11.52;4.55;;;;;;;4.45;100.00;161732.19;5031252;28;20043;-60
2023/12/22 05:09:00;;;;;;;19.83;5.15;;;;;;;4.49;100.00;161741.59;5029565;28;20393;-60
2023/12/22 05:11:25;;;;;;;8.38;4.32;;;;;;;4.50;100.00;161742.97;5030938;28;20492;-61
2023/12/22 05:13:50;;;;;;;26.80;8.32;;;;;;;4.49;100.00;161740.25;5028928;28;20037;-60
2023/12/22 05:16:16;;;;;;;16.60;4.28;;;;;;;4.53;100.00;161751.00;5034787;28;20033;-60
2023/12/22 05:18:41;;;;;;;20.42;6.13;;;;;;;4.54;100.00;161753.69;5033559;28;20025;-60
2023/12/22 05:21:06;;;;;;;20.35;5.20;;;;;;;4.52;100.00;161748.31;5029150;28;20459;-60
2023/12/22 05:23:32;;;;;;;10.52;5.68;;;;;;;4.54;100.00;161753.69;5030737;28;20064;-60
2023/12/22 05:25:58;;;;;;;14.73;4.82;;;;;;;4.57;100.00;161761.78;5030078;28;20049;-60
2023/12/22 05:28:23;;;;;;;18.90;5.25;;;;;;;4.56;100.00;161760.41;5046164;28;20052;-60
2023/12/22 05:30:48;;;;;;;16.80;4.95;;;;;;;4.60;100.00;161769.81;5029369;28;20435;-60
2023/12/22 05:33:14;;;;;;;16.75;5.97;;;;;;;4.57;100.00;161761.78;5031074;28;20068;-60
2023/12/22 05:35:39;;;;;;;13.43;4.18;;;;;;;4.60;100.00;161771.19;5028974;28;20072;-60
2023/12/22 05:38:05;;;;;;;18.42;4.75;;;;;;;4.61;100.00;161772.50;5029789;28;20401;-60
2023/12/22 05:40:31;;;;;;;12.93;4.30;;;;;;;4.69;100.00;161794.03;5029114;28;20038;-60
2023/12/22 05:42:57;;;;;;;12.50;3.92;;;;;;;4.70;100.00;161795.34;5030862;28;20034;-60
2023/12/22 05:45:24;;;;;;;9.30;3.25;;;;;;;4.73;100.00;161804.75;5042301;28;20052;-61
2023/12/22 05:47:50;;;;;;;16.48;4.70;;;;;;;4.82;100.00;161826.28;5033950;28;20075;-60
2023/12/22 05:50:15;;;;;;;24.60;4.97;;;;;;;4.81;100.00;161823.59;5026586;28;20041;-60
2023/12/22 05:52:42;;;;;;;12.75;3.92;;;;;;;4.82;100.00;161826.28;5033839;28;20431;-63
2023/12/22 05:55:08;;;;;;;19.77;4.32;;;;;;;4.82;100.00;161826.28;5038496;28;20037;-63
2023/12/22 05:57:33;;;;;;;15.88;4.28;;;;;;;4.79;100.00;161818.25;5029859;28;20480;-63
2023/12/22 05:59:59;;;;;;;14.15;3.45;;;;;;;4.79;100.00;161819.56;5027611;28;20052;-60
2023/12/22 06:02:25;;;;;;;14.95;5.22;;;;;;;4.86;100.00;161837.06;5032244;28;20492;-60
2023/12/22 06:04:50;;;;;;;18.15;4.75;;;;;;;4.89;100.00;161845.09;5037444;28;20045;-60
2023/12/22 06:07:16;;;;;;;12.02;5.10;;;;;;;4.92;100.00;161853.19;5029018;28;20419;-61
2023/12/22 06:09:41;;;;;;;13.65;4.28;;;;;;;4.90;100.00;161847.81;5028570;28;20046;-60
2023/12/22 06:12:07;;;;;;;13.57;3.53;;;;;;;4.86;100.00;161837.06;5029274;28;20075;-60
2023/12/22 06:14:34;;;;;;;16.65;4.47;;;;;;;4.88;100.00;161842.41;5026920;28;20551;-60
2023/12/22 06:17:00;;;;;;;18.88;4.05;;;;;;;4.89;100.00;161845.09;5029539;28;20712;-60
2023/12/22 06:19:28;;;;;;;24.27;5.07;;;;;;;4.90;100.00;161849.19;5028566;28;20116;-61
2023/12/22 06:21:53;;;;;;;21.95;5.05;;;;;;;4.99;100.00;161872.03;5029189;28;20021;-61
2023/12/22 06:24:19;;;;;;;13.43;4.35;;;;;;;5.04;100.00;161884.13;5045757;28;20041;-61
2023/12/22 06:26:44;;;;;;;13.95;6.38;;;;;;;5.07;100.00;161893.53;5049293;28;20041;-61
2023/12/22 06:29:10;;;;;;;14.70;6.85;;;;;;;5.06;100.00;161890.84;5047245;28;20037;-61
2023/12/22 06:31:35;;;;;;;18.48;6.13;;;;;;;5.11;100.00;161901.59;5047539;28;20029;-61
2023/12/22 06:34:02;;;;;;;17.08;5.20;;;;;;;5.06;100.00;161890.84;5028768;28;20420;-60
2023/12/22 06:36:28;;;;;;;12.07;4.95;;;;;;;5.11;100.00;161901.59;5033891;28;20029;-61
2023/12/22 06:38:54;;;;;;;18.13;5.78;;;;;;;5.05;100.00;161888.16;5048581;28;20029;-61
2023/12/22 06:41:29;;;;;;;19.10;4.00;;;;;;;5.24;100.00;161936.59;5042570;28;20104;-61
2023/12/22 06:44:01;;;;;;;13.30;5.03;;;;;;;5.29;100.00;161950.03;5026539;28;20556;-61
2023/12/22 06:46:28;;;;;;;20.70;6.43;;;;;;;5.31;100.00;161955.44;5033407;28;20112;-61
2023/12/22 06:48:55;;;;;;;18.98;6.28;;;;;;;5.35;100.00;161964.84;5032136;28;20022;-61
2023/12/22 06:51:33;;;;;;;13.98;3.72;;;;;;;5.39;100.00;161976.97;5038168;28;20043;-61
2023/12/22 06:54:01;;;;;;;27.88;4.85;;;;;;;5.39;100.00;161976.97;5051143;28;20147;-60
2023/12/22 06:56:29;;;;;;;23.23;8.40;;;;;;;5.24;100.00;161936.59;5053177;28;20075;-61
2023/12/22 06:58:57;;;;;;;16.45;5.63;;;;;;;5.27;100.00;161944.66;5050620;28;20028;-60
2023/12/22 07:01:29;;;;;;;22.27;4.85;;;;;;;5.20;100.00;161925.81;5046034;28;20021;-58
2023/12/22 07:03:55;;;;;;;17.10;7.85;;;;;;;5.12;100.00;161904.28;5030754;28;20091;-59
2023/12/22 07:06:22;;;;;;;20.17;6.43;;;;;;;5.02;100.00;161880.13;5031904;28;20026;-58
2023/12/22 07:09:19;;;;;;;25.90;8.38;;;;;;;5.01;100.00;161876.03;5030794;28;20417;-58
2023/12/22 07:11:50;;;;;;;16.63;6.40;;;;;;;4.95;100.00;161861.28;5041739;28;20052;-58
2023/12/22 07:14:15;;;;;;;26.95;5.95;;;;;;;4.96;100.00;161863.94;5050482;28;20036;-58
2023/12/22 07:16:42;;;;;;;19.70;6.80;;;;;;;5.00;100.00;161874.72;5052622;28;20078;-58
2023/12/22 07:19:07;;;;;;;25.42;5.20;;;;;;;4.99;100.00;161872.03;5051535;28;20120;-58
2023/12/22 07:21:32;;;;;;;19.88;6.65;;;;;;;4.97;100.00;161866.63;5043511;28;20074;-58
2023/12/22 07:23:58;;;;;;;10.20;5.22;;;;;;;4.95;100.00;161861.28;5031217;28;20472;-58
2023/12/22 07:26:24;;;;;;;31.95;6.20;;;;;;;4.89;100.00;161845.09;5032719;28;20029;-58
2023/12/22 07:28:49;;;;;;;14.13;5.10;;;;;;;4.87;100.00;161839.78;5030271;28;20473;-59
2023/12/22 07:31:15;;;;;;;14.57;4.32;;;;;;;4.86;100.00;161838.41;5037230;28;20125;-58
2023/12/22 07:33:40;;;;;;;10.65;5.75;;;;;;;4.73;100.00;161803.44;5052164;28;20099;-58
2023/12/22 07:36:06;;;;;;;10.27;4.20;;;;;;;4.84;100.00;161831.69;5032847;28;20053;-58
2023/12/22 07:38:32;;;;;;;23.85;7.32;;;;;;;4.80;100.00;161820.94;5031699;28;20551;-58
2023/12/22 07:40:58;;;;;;;17.17;6.65;;;;;;;4.83;100.00;161828.97;5036715;28;20070;-58
2023/12/22 07:43:24;;;;;;;12.68;3.33;;;;;;;4.86;100.00;161838.41;5051674;28;20021;-58
2023/12/22 07:45:50;;;;;;;19.05;5.13;;;;;;;4.80;100.00;161820.94;5050918;28;20106;-58
2023/12/22 07:48:16;;;;;;;14.32;4.30;;;;;;;4.81;100.00;161823.59;5046457;28;20103;-60
2023/12/22 07:50:42;;;;;;;25.00;7.53;;;;;;;4.78;100.00;161815.56;5037224;28;20161;-57
2023/12/22 07:53:08;;;;;;;14.57;4.70;;;;;;;4.73;100.00;161804.75;5032605;28;20036;-58
2023/12/22 07:55:33;;;;;;;19.33;8.70;;;;;;;4.70;100.00;161795.34;5030702;28;20060;-57
2023/12/22 07:57:59;;;;;;;16.77;7.20;;;;;;;4.69;100.00;161794.03;5031792;28;20465;-57
2023/12/22 08:00:24;;;;;;;24.35;10.35;;;;;;;4.65;100.00;161783.28;5040382;28;20041;-60
2023/12/22 08:02:49;;;;;;;19.70;7.07;;;;;;;4.67;100.00;161787.31;5052065;28;20373;-60
2023/12/22 08:05:15;;;;;;;24.92;7.38;;;;;;;4.68;100.00;161791.34;5050179;28;20048;-60
2023/12/22 08:07:41;;;;;;;21.13;8.80;;;;;;;4.69;100.00;161794.03;5052058;28;20104;-60
2023/12/22 08:10:06;;;;;;;8.90;4.10;;;;;;;4.71;100.00;161798.06;5042639;28;20420;-61
2023/12/22 08:12:32;;;;;;;11.23;3.92;;;;;;;4.73;100.00;161804.75;5030713;28;20067;-59
2023/12/22 08:14:58;;;;;;;15.55;5.60;;;;;;;4.72;100.00;161802.13;5029326;28;20037;-59
2023/12/22 08:17:24;;;;;;;18.77;6.38;;;;;;;4.65;100.00;161783.28;5031420;28;20104;-59
2023/12/22 08:19:49;;;;;;;14.13;4.03;;;;;;;4.69;100.00;161631.34;5030274;28;20045;-58
2023/12/22 08:22:15;;;;;;;23.92;4.00;;;;;;;4.70;100.00;158950.41;5031567;28;20416;-59
2023/12/22 08:24:41;;;;;;;18.63;5.18;;;;;;;4.67;100.00;155788.31;5028928;28;20072;-59
2023/12/22 08:27:07;;;;;;;10.23;5.20;;;;;;;4.65;100.00;151646.31;5029277;28;20467;-59
2023/12/22 08:29:32;;;;;;;15.93;5.40;;;;;;;4.58;100.00;147091.81;5032058;28;20049;-59
2023/12/22 08:31:58;;;;;;;15.40;4.03;;;;;;;4.64;100.00;142921.41;5030173;28;20033;-58
2023/12/22 08:34:23;;;;;;;22.85;5.10;;;;;;;4.63;100.00;139783.97;5028395;28;20412;-59
2023/12/22 08:36:49;;;;;;;12.15;6.18;;;;;;;4.52;100.00;137324.56;5030138;28;20050;-59
2023/12/22 08:39:15;;;;;;;12.98;4.53;;;;;;;4.56;100.00;134550.84;5014334;28;20045;-59
2023/12/22 08:41:40;;;;;;;20.50;5.70;;;;;;;4.55;100.00;132809.25;5029987;28;20048;-59
2023/12/22 08:44:06;;;;;;;13.32;4.85;;;;;;;4.55;100.00;130724.34;5029071;28;20718;-59
2023/12/22 08:46:32;;;;;;;9.75;3.20;;;;;;;4.54;100.00;128985.56;5030350;28;20183;-59
2023/12/22 08:48:59;;;;;;;7.85;3.05;;;;;;;4.53;100.00;127594.69;5046855;28;20021;-59
2023/12/22 08:51:25;;;;;;;19.83;5.75;;;;;;;4.54;100.00;126556.56;5051177;28;20052;-59
2023/12/22 08:53:52;;;;;;;24.73;6.10;;;;;;;4.58;100.00;125522.81;5049674;28;20481;-59
2023/12/22 08:56:18;;;;;;;18.83;4.47;;;;;;;4.57;100.00;124826.88;5040781;28;20017;-59
2023/12/22 08:58:43;;;;;;;11.65;5.03;;;;;;;4.58;100.00;123789.31;5046474;28;20025;-59
2023/12/22 09:01:15;;;;;;;11.48;3.78;;;;;;;4.60;100.00;123098.75;5049222;28;20071;-59
2023/12/22 09:03:44;;;;;;;19.52;6.63;;;;;;;4.69;100.00;122076.63;5050296;28;20056;-59
2023/12/22 09:06:10;;;;;;;16.73;5.57;;;;;;;4.78;100.00;120359.09;5049401;28;20045;-56
2023/12/22 09:08:35;;;;;;;13.63;5.13;;;;;;;4.90;100.00;118650.59;5035483;28;20488;-56
2023/12/22 09:11:01;;;;;;;23.77;5.32;;;;;;;5.07;100.00;116603.28;5029531;28;20053;-56
2023/12/22 09:13:26;;;;;;;20.38;5.50;;;;;;;5.11;100.00;116609.97;5050189;28;20033;-56
2023/12/22 09:15:51;;;;;;;22.98;4.78;;;;;;;5.02;100.00;117979.81;5049357;28;20036;-56
2023/12/22 09:18:17;;;;;;;14.20;4.72;;;;;;;4.98;100.00;119358.53;5038019;28;20021;-55
2023/12/22 09:20:42;;;;;;;12.48;4.13;;;;;;;5.02;100.00;120059.84;5029255;28;20405;-56
2023/12/22 09:23:09;;;;;;;13.15;3.70;;;;;;;4.98;100.00;121091.31;5031032;28;20079;-56
2023/12/22 09:25:35;;;;;;;17.70;5.90;;;;;;;5.06;100.00;122842.97;5028670;28;20034;-56
2023/12/22 09:28:00;;;;;;;10.38;5.03;;;;;;;5.06;100.00;124577.44;5039804;28;20028;-56
2023/12/22 09:30:25;;;;;;;16.15;4.32;;;;;;;5.03;100.00;127003.03;5049056;28;20044;-56
2023/12/22 09:32:51;;;;;;;17.38;5.55;;;;;;;5.00;100.00;128732.75;5049999;28;20021;-56
2023/12/22 09:35:17;;;;;;;19.90;8.48;;;;;;;4.97;100.00;129770.00;5049053;28;20063;-56
2023/12/22 09:37:42;;;;;;;22.08;7.10;;;;;;;5.00;100.00;129428.88;5043046;28;20504;-56
2023/12/22 09:40:09;;;;;;;16.98;5.18;;;;;;;5.05;100.00;128396.94;5028917;28;20048;-56
2023/12/22 09:42:35;;;;;;;23.83;7.10;;;;;;;5.10;100.00;127015.63;5030539;28;20083;-56
2023/12/22 09:45:02;;;;;;;15.75;7.80;;;;;;;5.16;100.00;125291.41;5029119;28;20061;-56
2023/12/22 09:47:30;;;;;;;16.45;6.32;;;;;;;5.23;100.00;123569.63;5031144;28;20028;-55
2023/12/22 09:49:57;;;;;;;23.58;5.03;;;;;;;5.25;100.00;122185.16;5029091;28;20042;-56
2023/12/22 09:52:23;;;;;;;17.52;6.55;;;;;;;5.25;100.00;121144.06;5010328;28;20481;-56
2023/12/22 09:54:49;;;;;;;22.15;7.53;;;;;;;5.23;100.00;120100.31;5008873;28;20068;-56
2023/12/22 09:57:15;;;;;;;35.17;8.55;;;;;;;5.27;100.00;119413.47;5015649;28;20083;-56
2023/12/22 09:59:41;;;;;;;17.77;8.63;;;;;;;5.24;100.00;118714.97;5048336;28;20045;-56
2023/12/22 10:02:08;;;;;;;12.65;6.38;;;;;;;5.20;100.00;118359.47;5049943;28;20430;-56
2023/12/22 10:04:33;;;;;;;25.52;7.53;;;;;;;5.27;100.00;117332.00;5048851;28;20033;-56
2023/12/22 10:07:02;;;;;;;38.13;8.80;;;;;;;5.31;100.00;115607.56;5046467;28;20504;-56
2023/12/22 10:09:28;;;;;;;19.92;5.82;;;;;;;5.36;100.00;113884.56;5028502;28;20507;-56
2023/12/22 10:11:56;;;;;;;23.25;5.93;;;;;;;5.43;100.00;112511.09;5030106;28;20028;-56
2023/12/22 10:14:22;;;;;;;21.97;6.60;;;;;;;-146.58;100.00;69501.63;5028627;28;20034;-56
2023/12/22 10:16:52;;;;;;;22.25;8.57;;;;;;;-146.58;100.00;69501.63;5031578;28;20432;-56
2023/12/22 10:19:18;;;;;;;19.65;6.15;;;;;;;-146.58;100.00;69501.63;5047914;28;20041;-56
2023/12/22 10:21:43;;;;;;;24.38;7.13;;;;;;;-146.58;100.00;69501.63;5054244;28;20067;-56
2023/12/22 10:24:42;;;;;;;38.63;10.57;;;;;;;-146.58;100.00;69501.63;5052590;28;20036;-57
2023/12/22 10:27:08;;;;;;;48.70;13.68;;;;;;;-146.58;100.00;69501.63;5049916;28;20392;-56
2023/12/22 10:29:34;;;;;;;29.35;8.77;;;;;;;-146.58;100.00;69501.63;5032233;28;20033;-56
2023/12/22 10:32:01;;;;;;;23.90;7.43;;;;;;;-146.58;100.00;69501.63;5033321;28;20033;-56
2023/12/22 10:34:26;;;;;;;26.48;8.48;;;;;;;-146.58;100.00;69501.63;5032170;28;20037;-57
2023/12/22 10:36:52;;;;;;;15.20;3.50;;;;;;;-146.58;100.00;69501.63;5035198;28;20052;-56
2023/12/22 10:39:17;;;;;;;8.48;3.88;;;;;;;-146.58;100.00;69501.63;5052088;28;20049;-56
2023/12/22 10:41:44;;;;;;;6.60;3.30;;;;;;;-146.58;100.00;69501.63;5053644;28;20036;-56
2023/12/22 10:44:09;;;;;;;12.10;3.50;;;;;;;-146.58;100.00;69501.63;5052216;28;20124;-56
2023/12/22 10:46:35;;;;;;;7.30;3.67;;;;;;;-146.58;100.00;69501.63;5039884;28;20064;-56
2023/12/22 10:49:02;;;;;;;8.80;2.00;;;;;;;-146.58;100.00;69501.63;5051190;28;20024;-56
2023/12/22 10:51:32;;;;;;;3.78;2.30;;;;;;;-146.58;100.00;69501.63;5053130;28;20100;-56
2023/12/22 10:53:57;;;;;;;13.73;4.88;;;;;;;-146.58;100.00;69501.63;5051729;28;20082;-56
2023/12/22 10:56:24;;;;;;;3.60;2.08;;;;;;;-146.58;100.00;69501.63;5053133;28;20051;-56
2023/12/22 10:58:52;;;;;;;10.85;2.85;;;;;;;-146.58;100.00;69501.63;5034145;28;20075;-55
2023/12/22 11:01:17;;;;;;;11.20;4.80;;;;;;;-146.58;100.00;69501.63;5032831;28;20504;-56
2023/12/22 11:03:44;;;;;;;5.18;2.33;;;;;;;-146.58;100.00;69501.63;5033073;28;20025;-56
2023/12/22 11:06:12;;;;;;;3.97;2.10;;;;;;;-146.58;100.00;69501.63;5040793;28;20128;-56
2023/12/22 11:08:39;;;;;;;6.75;2.90;;;;;;;-146.58;100.00;69501.63;5036530;28;20026;-56
2023/12/22 11:11:15;;;;;;;7.63;2.40;;;;;;;-146.58;100.00;69501.63;5035795;28;20033;-56